Aviation Digital Data Service (ADDS)

Output produced by METARs form (1112 UTC 24 April 2017)
found at http://www.aviationweather.gov/adds/metars/
 
TAF SYCJ 241054Z 2412/2512 07012KT 6000 SHRA BKN014 SCT040 
     BECMG 2421/2423 04008KT 9999 SCT015 BKN090
       
TAF SYKM 241054Z 2412/2423 04006KT 9999 BKN015 
     TEMPO 2416/2422 6000 SHRA BKN012 BKN040
       
TAF SYLT 241054Z 2412/2423 05014KT 6000 SHRA BKN014 BKN040 
     BECMG 2418/2420 BKN020 BKN090